Time;durP1;ratioP1;P1;durP2;ratioP2;P2;SDS_P1;SDS_P2;PMS_P1;PMS_P2;Temp;Humidity;BMP_temperature;BMP_pressure;BME280_temperature;BME280_humidity;BME280_pressure;Samples;Min_cycle;Max_cycle;Signal;HPM_P1;HPM_P2
2023/09/17 00:04:14;;;;;;;16.10;12.98;;;;;;;18.90;79.47;100263.47;10483090;28;20063;-75
2023/09/17 00:09:18;;;;;;;13.32;12.02;;;;;;;19.02;79.06;100265.56;10480752;28;20588;-76
2023/09/17 00:14:23;;;;;;;13.60;11.57;;;;;;;19.10;78.23;100267.38;10487723;28;20123;-76
2023/09/17 00:19:27;;;;;;;14.55;12.80;;;;;;;19.01;78.24;100273.94;10477467;28;21077;-76
2023/09/17 00:24:30;;;;;;;13.20;11.63;;;;;;;19.02;78.82;100262.00;10478541;27;20048;-75
2023/09/17 00:29:34;;;;;;;13.77;12.38;;;;;;;19.10;78.43;100259.22;10481314;28;20044;-75
2023/09/17 00:34:37;;;;;;;13.32;11.93;;;;;;;19.17;78.11;100260.19;10479092;28;20047;-76
2023/09/17 00:39:40;;;;;;;14.45;12.18;;;;;;;19.11;77.74;100269.06;10478993;28;20101;-77
2023/09/17 00:44:44;;;;;;;13.18;11.77;;;;;;;19.02;77.80;100259.28;10488538;28;20044;-77
2023/09/17 00:49:47;;;;;;;12.98;11.57;;;;;;;18.99;78.22;100254.22;10488057;28;20044;-77
2023/09/17 00:54:52;;;;;;;12.98;11.60;;;;;;;19.07;77.95;100256.88;10480389;28;20154;-77
2023/09/17 00:59:56;;;;;;;13.25;11.93;;;;;;;19.13;77.70;100247.97;10488304;28;20043;-76
2023/09/17 01:04:59;;;;;;;14.50;11.35;;;;;;;19.13;77.21;100247.13;10485070;28;20496;-76
2023/09/17 01:10:02;;;;;;;15.30;11.93;;;;;;;19.13;77.06;100233.50;10485908;28;20047;-76
2023/09/17 01:15:09;;;;;;;15.77;12.90;;;;;;;19.15;77.17;100242.34;10482252;28;20719;-76
2023/09/17 01:20:24;;;;;;;14.07;12.30;;;;;;;18.95;77.00;100240.13;10483208;28;20048;-76
2023/09/17 01:25:42;;;;;;;15.82;13.68;;;;;;;18.84;78.63;100237.84;10485358;28;20284;-76
2023/09/17 01:30:46;;;;;;;14.27;12.75;;;;;;;19.00;77.97;100234.13;10484922;28;20412;-76
2023/09/17 01:35:54;;;;;;;14.93;11.93;;;;;;;19.04;77.52;100231.91;10480297;28;20201;-76
2023/09/17 01:40:59;;;;;;;16.73;12.25;;;;;;;18.98;77.03;100230.75;10479221;28;20051;-76
2023/09/17 01:46:03;;;;;;;13.75;12.18;;;;;;;18.90;77.37;100233.56;10472027;28;20058;-76
2023/09/17 01:51:08;;;;;;;14.52;13.02;;;;;;;18.87;77.38;100231.16;10474541;28;20052;-76
2023/09/17 01:56:13;;;;;;;15.57;12.80;;;;;;;18.75;77.49;100222.56;10467614;28;20127;-76
2023/09/17 02:01:18;;;;;;;16.30;13.57;;;;;;;18.68;77.29;100218.91;10464273;28;20053;-76
2023/09/17 02:06:21;;;;;;;16.13;13.57;;;;;;;18.65;77.21;100211.94;10464428;28;20059;-75
2023/09/17 02:11:23;;;;;;;16.80;13.13;;;;;;;18.59;77.23;100215.34;10474565;28;20681;-74
2023/09/17 02:16:28;;;;;;;17.00;13.35;;;;;;;18.53;77.62;100211.50;10472891;28;20044;-76
2023/09/17 02:21:31;;;;;;;15.00;13.30;;;;;;;18.45;78.25;100225.13;10468936;28;20040;-76
2023/09/17 02:26:34;;;;;;;14.95;12.98;;;;;;;18.45;77.96;100224.31;10469659;28;20055;-75
2023/09/17 02:31:38;;;;;;;15.20;13.57;;;;;;;18.39;78.29;100225.88;10475465;28;20478;-77
2023/09/17 02:36:41;;;;;;;17.08;13.73;;;;;;;18.36;78.66;100234.38;10474222;28;20052;-74
2023/09/17 02:41:44;;;;;;;13.75;11.85;;;;;;;18.31;78.07;100228.63;10474297;28;20044;-76
2023/09/17 02:46:48;;;;;;;14.13;12.20;;;;;;;18.24;78.27;100231.22;10482923;28;20726;-76
2023/09/17 02:51:52;;;;;;;15.15;12.50;;;;;;;18.28;78.03;100229.84;10470658;28;20775;-76
2023/09/17 02:56:54;;;;;;;13.18;11.48;;;;;;;18.29;77.92;100223.38;10472556;28;20529;-76
2023/09/17 03:01:59;;;;;;;13.50;12.02;;;;;;;18.27;78.07;100224.59;10472422;28;20055;-76
2023/09/17 03:07:04;;;;;;;18.38;13.70;;;;;;;17.80;79.97;100236.31;10470110;28;20051;-76
2023/09/17 03:18:55;;;;;;;15.25;13.43;;;;;;;17.37;82.93;100239.31;10472637;28;20689;-77
2023/09/17 03:23:59;;;;;;;15.70;12.43;;;;;;;17.64;81.88;100229.06;10479299;28;20120;-77
2023/09/17 03:29:02;;;;;;;18.73;13.18;;;;;;;17.76;80.59;100233.09;10473767;28;20047;-77
2023/09/17 03:34:06;;;;;;;13.98;12.57;;;;;;;17.89;80.07;100219.81;10475041;28;20128;-75
2023/09/17 03:39:10;;;;;;;14.65;13.15;;;;;;;17.92;79.38;100222.16;10465781;28;20055;-75
2023/09/17 03:44:14;;;;;;;17.77;14.25;;;;;;;17.76;80.03;100219.50;10466500;28;20044;-75
2023/09/17 03:49:23;;;;;;;15.88;14.18;;;;;;;17.72;80.60;100220.03;10472648;28;20036;-76
2023/09/17 03:54:27;;;;;;;15.57;12.90;;;;;;;17.69;80.46;100215.81;10488862;28;20071;-76
2023/09/17 03:59:30;;;;;;;14.30;12.68;;;;;;;17.72;80.54;100206.44;10472645;28;20125;-76
2023/09/17 04:04:34;;;;;;;17.48;11.52;;;;;;;17.64;80.35;100213.63;10474374;28;20090;-75
2023/09/17 04:09:37;;;;;;;16.05;14.35;;;;;;;17.53;81.39;100218.59;10482228;28;20059;-76
2023/09/17 04:14:39;;;;;;;17.27;14.13;;;;;;;17.54;81.47;100203.97;10480848;28;20696;-75
2023/09/17 04:19:43;;;;;;;14.40;12.90;;;;;;;17.61;81.26;100205.81;10481736;28;20064;-76
2023/09/17 04:24:46;;;;;;;14.02;12.63;;;;;;;17.71;81.15;100211.03;10486945;28;20454;-76
2023/09/17 04:29:49;;;;;;;17.05;12.45;;;;;;;17.75;80.60;100209.69;10473853;28;21205;-76
2023/09/17 04:34:54;;;;;;;14.15;12.30;;;;;;;17.90;80.43;100207.91;10480791;28;20143;-76
2023/09/17 04:39:57;;;;;;;13.60;12.30;;;;;;;17.98;79.80;100201.63;10477361;28;20142;-76
2023/09/17 04:45:00;;;;;;;14.50;12.20;;;;;;;17.91;79.65;100200.63;10478765;28;20051;-76
2023/09/17 04:50:07;;;;;;;13.70;12.30;;;;;;;17.67;79.97;100207.00;10480106;28;20503;-76
2023/09/17 04:55:11;;;;;;;14.80;12.02;;;;;;;17.58;80.57;100202.59;10481215;28;20040;-75
2023/09/17 05:00:15;;;;;;;12.88;11.52;;;;;;;17.64;80.69;100210.06;10482755;28;20165;-75
2023/09/17 05:05:20;;;;;;;13.38;11.80;;;;;;;17.65;80.32;100203.59;10484161;28;20201;-76
2023/09/17 05:10:27;;;;;;;12.90;11.60;;;;;;;17.66;80.24;100199.84;10475637;28;20411;-76
2023/09/17 05:15:30;;;;;;;12.93;11.65;;;;;;;17.62;79.94;100209.38;10471545;28;20036;-75
2023/09/17 05:20:38;;;;;;;13.05;11.57;;;;;;;17.60;79.83;100214.97;10472330;28;20074;-76
2023/09/17 05:25:41;;;;;;;11.43;10.27;;;;;;;17.55;80.08;100211.97;10465958;28;20131;-76
2023/09/17 05:30:45;;;;;;;13.32;10.32;;;;;;;17.55;80.34;100202.94;10487660;28;20068;-76
2023/09/17 05:35:56;;;;;;;12.45;11.25;;;;;;;17.62;79.67;100212.94;10484076;28;20052;-76
2023/09/17 05:41:01;;;;;;;12.63;10.93;;;;;;;17.65;79.89;100206.31;10487826;28;20056;-76
2023/09/17 05:46:05;;;;;;;15.55;11.10;;;;;;;17.72;79.29;100215.47;10479429;28;20519;-76
2023/09/17 05:51:15;;;;;;;12.07;10.82;;;;;;;17.68;79.63;100205.97;10486247;28;20051;-76
2023/09/17 05:56:18;;;;;;;15.15;11.15;;;;;;;17.79;79.99;100213.72;10484583;28;20528;-77
2023/09/17 06:01:21;;;;;;;13.80;11.18;;;;;;;18.10;80.02;100194.78;10484131;28;20082;-76
2023/09/17 06:06:26;;;;;;;12.40;11.10;;;;;;;18.41;78.76;100183.03;10485261;28;20050;-77
2023/09/17 06:11:30;;;;;;;14.10;12.57;;;;;;;18.43;77.77;100208.19;10484604;28;20730;-76
2023/09/17 06:16:33;;;;;;;14.75;11.40;;;;;;;18.34;77.93;100223.69;10478045;28;20587;-76
2023/09/17 06:21:57;;;;;;;12.95;10.93;;;;;;;18.41;77.73;100220.25;10484543;28;20048;-76
2023/09/17 06:27:00;;;;;;;11.75;10.55;;;;;;;18.56;78.11;100213.84;10472545;28;20043;-77
2023/09/17 06:32:03;;;;;;;14.35;12.18;;;;;;;16.54;89.82;100253.00;10485677;28;20571;-78
2023/09/17 06:37:08;;;;;;;16.20;14.00;;;;;;;17.30;87.67;100229.31;10485522;28;20040;-78
2023/09/17 06:42:11;;;;;;;13.57;12.18;;;;;;;17.67;86.32;100234.16;10491238;28;20147;-78
2023/09/17 06:47:15;;;;;;;15.35;13.63;;;;;;;17.78;86.16;100224.78;10491338;28;20049;-78
2023/09/17 06:52:23;;;;;;;21.08;12.20;;;;;;;17.76;85.54;100226.81;10491436;28;20126;-78
2023/09/17 06:57:28;;;;;;;10.25;9.07;;;;;;;18.28;84.76;100223.56;10488513;28;20048;-78
2023/09/17 07:02:32;;;;;;;13.23;11.82;;;;;;;18.50;83.37;100211.84;10476638;28;20671;-77
2023/09/17 07:07:36;;;;;;;10.63;9.63;;;;;;;18.72;83.05;100199.28;10473689;28;20072;-77
2023/09/17 07:12:39;;;;;;;12.40;11.20;;;;;;;18.91;82.05;100197.97;10483767;28;20148;-77
2023/09/17 07:17:42;;;;;;;12.23;10.30;;;;;;;19.07;81.86;100205.16;10481215;28;20055;-77
2023/09/17 07:22:47;;;;;;;9.43;7.90;;;;;;;19.35;80.34;100216.28;10492411;28;20043;-77
2023/09/17 07:27:49;;;;;;;9.18;8.27;;;;;;;19.60;78.17;100214.16;10493243;28;20687;-77
2023/09/17 07:32:52;;;;;;;9.63;8.75;;;;;;;19.94;76.71;100225.50;10490601;28;20044;-77
2023/09/17 07:37:57;;;;;;;10.25;9.15;;;;;;;19.68;77.08;100224.97;10491295;28;20044;-76
2023/09/17 07:43:01;;;;;;;10.10;9.13;;;;;;;20.08;76.20;100220.06;10488763;28;20044;-78
2023/09/17 07:48:04;;;;;;;10.30;9.10;;;;;;;19.99;75.85;100229.34;10508215;28;20182;-77
2023/09/17 07:53:08;;;;;;;12.10;9.80;;;;;;;20.09;75.89;100238.09;10519102;28;20051;-76
2023/09/17 07:58:11;;;;;;;11.38;10.25;;;;;;;19.90;77.00;100241.41;10488131;28;20103;-76
2023/09/17 08:03:16;;;;;;;15.25;12.23;;;;;;;19.30;82.22;100228.75;10480462;28;20058;-77
2023/09/17 08:08:21;;;;;;;14.75;12.77;;;;;;;18.63;88.67;100230.31;10478727;28;20503;-76
2023/09/17 08:13:24;;;;;;;16.48;12.77;;;;;;;18.26;94.67;100240.03;10483464;28;20045;-76
2023/09/17 08:18:27;;;;;;;22.08;14.70;;;;;;;17.92;100.00;100222.16;10488592;28;20404;-76
2023/09/17 08:23:31;;;;;;;16.60;14.25;;;;;;;;;;10496065;28;20047;-76
2023/09/17 08:28:35;;;;;;;18.48;15.20;;;;;;;18.30;100.00;100200.59;10490802;28;20048;-76
2023/09/17 08:33:37;;;;;;;19.08;15.23;;;;;;;18.36;100.00;100180.84;10483763;28;20617;-77
2023/09/17 08:38:42;;;;;;;20.40;16.10;;;;;;;18.38;100.00;100193.44;10478552;28;20789;-77
2023/09/17 08:43:46;;;;;;;17.95;15.57;;;;;;;18.19;100.00;100225.47;10509313;27;20055;-78
2023/09/17 08:48:49;;;;;;;22.05;16.98;;;;;;;18.21;100.00;100215.28;10476245;27;20044;-77
2023/09/17 08:54:03;;;;;;;18.75;16.30;;;;;;;18.43;100.00;100196.44;10484342;28;20058;-78
2023/09/17 08:59:11;;;;;;;16.55;14.75;;;;;;;18.85;100.00;100189.72;10487469;28;20146;-76
2023/09/17 09:04:14;;;;;;;16.65;14.85;;;;;;;19.30;100.00;100198.81;10481631;28;20071;-76
2023/09/17 09:09:21;;;;;;;15.68;13.80;;;;;;;19.46;100.00;100188.56;10485144;28;20438;-77
2023/09/17 09:14:24;;;;;;;17.40;12.23;;;;;;;19.52;100.00;100200.59;10488784;27;20067;-77
2023/09/17 09:19:27;;;;;;;12.98;11.57;;;;;;;19.62;100.00;100195.75;10487974;28;20044;-76
2023/09/17 09:24:41;;;;;;;13.70;10.90;;;;;;;19.92;100.00;100198.47;10488854;28;20415;-75
2023/09/17 09:29:44;;;;;;;11.25;10.18;;;;;;;20.28;95.87;100195.75;10480069;28;20802;-77
2023/09/17 09:34:48;;;;;;;10.65;9.68;;;;;;;20.83;90.42;100201.56;10483960;28;20044;-76
2023/09/17 09:39:53;;;;;;;9.95;8.95;;;;;;;20.99;91.96;100195.84;10496475;28;20533;-75
2023/09/17 09:44:58;;;;;;;10.20;8.50;;;;;;;21.68;92.76;100184.16;10495029;28;20059;-75
2023/09/17 09:50:01;;;;;;;9.43;8.30;;;;;;;22.25;83.48;100186.75;10495517;28;20275;-74
2023/09/17 09:55:07;;;;;;;8.32;7.47;;;;;;;22.63;78.59;100170.63;10491565;28;20071;-76
2023/09/17 10:00:14;;;;;;;7.72;6.82;;;;;;;22.55;73.54;100174.41;10484373;28;20418;-77
2023/09/17 10:05:18;;;;;;;8.45;7.65;;;;;;;22.17;74.04;100171.34;10484929;28;20507;-77
2023/09/17 10:10:22;;;;;;;6.85;6.25;;;;;;;22.33;74.90;100173.72;10491640;28;20045;-77
2023/09/17 10:15:26;;;;;;;6.65;5.93;;;;;;;22.48;72.11;100172.72;10484618;28;20131;-76
2023/09/17 10:20:30;;;;;;;9.25;7.05;;;;;;;23.17;68.46;100174.25;10480482;28;20044;-76
2023/09/17 10:25:35;;;;;;;6.72;6.13;;;;;;;23.50;66.68;100167.84;10467646;28;20079;-75
2023/09/17 10:30:39;;;;;;;6.20;5.65;;;;;;;23.69;66.57;100161.47;10468731;28;20131;-75
2023/09/17 10:35:44;;;;;;;6.43;5.70;;;;;;;23.91;69.94;100153.81;10473999;28;20139;-76
2023/09/17 10:40:49;;;;;;;9.15;6.80;;;;;;;24.35;64.79;100159.50;10477979;28;20052;-76
2023/09/17 10:45:55;;;;;;;7.10;6.10;;;;;;;24.98;63.15;100151.22;10475957;28;20052;-76
2023/09/17 10:50:59;;;;;;;5.88;5.30;;;;;;;26.02;69.31;100149.50;10475697;28;20395;-76
2023/09/17 10:56:08;;;;;;;7.13;5.68;;;;;;;26.99;56.60;100144.91;10486312;28;20137;-77
2023/09/17 11:01:15;;;;;;;6.25;5.15;;;;;;;28.00;57.11;100142.75;10481459;28;20054;-77
2023/09/17 11:06:24;;;;;;;6.30;5.55;;;;;;;28.55;51.15;100131.13;10486065;28;20550;-77
2023/09/17 11:11:30;;;;;;;6.97;5.85;;;;;;;28.99;51.00;100133.22;10483293;28;20044;-77
2023/09/17 11:16:36;;;;;;;12.05;6.03;;;;;;;28.46;52.06;100133.41;10485459;28;20055;-77
2023/09/17 11:21:41;;;;;;;5.72;5.32;;;;;;;28.16;53.04;100138.38;10498872;28;20052;-78
2023/09/17 11:26:46;;;;;;;7.32;5.32;;;;;;;28.00;54.25;100123.44;10516399;28;20052;-77
2023/09/17 11:32:04;;;;;;;5.80;5.15;;;;;;;27.88;52.84;100128.97;10508457;28;20057;-79
2023/09/17 11:37:07;;;;;;;7.85;5.57;;;;;;;28.42;53.43;100128.66;10497774;28;20167;-78
2023/09/17 11:42:14;;;;;;;5.55;4.90;;;;;;;28.80;51.77;100121.56;10488248;28;21248;-78
2023/09/17 11:47:19;;;;;;;4.05;3.75;;;;;;;29.09;48.56;100119.56;10488848;28;20049;-77
2023/09/17 11:52:24;;;;;;;4.22;3.92;;;;;;;29.40;45.29;100120.00;10485532;28;20122;-78
2023/09/17 11:57:28;;;;;;;5.95;4.45;;;;;;;28.45;47.00;100108.81;10483718;28;20537;-77
2023/09/17 12:02:31;;;;;;;4.50;4.07;;;;;;;28.89;47.24;100109.84;10496928;28;20048;-78
2023/09/17 12:07:36;;;;;;;4.80;4.28;;;;;;;29.84;46.39;100103.44;10492939;28;20052;-77
2023/09/17 12:12:59;;;;;;;4.57;4.25;;;;;;;30.20;45.22;100091.69;10496038;28;20070;-79
2023/09/17 12:18:02;;;;;;;4.00;3.70;;;;;;;28.94;46.77;100111.88;10497807;28;20051;-79
2023/09/17 12:23:57;;;;;;;3.85;3.55;;;;;;;28.18;48.65;100097.56;10504300;28;20043;-78
2023/09/17 12:29:01;;;;;;;4.38;3.97;;;;;;;27.94;48.40;100097.63;10497500;28;21291;-78
2023/09/17 12:34:05;;;;;;;4.10;3.70;;;;;;;28.80;48.71;100097.56;10499490;28;20047;-79
2023/09/17 12:39:08;;;;;;;4.97;3.83;;;;;;;29.48;46.17;100081.66;10496875;28;20040;-78
2023/09/17 12:44:13;;;;;;;5.30;3.90;;;;;;;31.11;42.34;100081.63;10515019;27;20055;-78
2023/09/17 12:49:16;;;;;;;4.00;3.67;;;;;;;30.78;43.10;100085.56;10513730;28;20048;-79
2023/09/17 12:54:21;;;;;;;4.53;4.13;;;;;;;29.72;46.32;100084.22;10496292;28;20043;-77
2023/09/17 12:59:30;;;;;;;4.18;3.75;;;;;;;28.82;47.93;100086.25;10489516;28;20074;-78
2023/09/17 13:04:34;;;;;;;4.65;3.75;;;;;;;29.51;48.08;100077.56;10488202;28;20056;-79
2023/09/17 13:09:37;;;;;;;4.43;4.03;;;;;;;28.97;46.46;100089.25;10489264;28;21141;-78
2023/09/17 13:14:41;;;;;;;5.60;4.35;;;;;;;29.12;47.15;100078.44;10498580;28;20184;-78
2023/09/17 13:19:44;;;;;;;5.20;4.80;;;;;;;32.15;41.82;100068.72;10497589;28;20044;-78
2023/09/17 13:24:48;;;;;;;9.90;3.58;;;;;;;34.77;37.65;100060.25;10493742;28;20093;-78
2023/09/17 13:29:53;;;;;;;5.63;3.92;;;;;;;33.88;37.89;100071.50;10494694;28;20561;-78
2023/09/17 13:34:58;;;;;;;4.75;3.40;;;;;;;36.03;36.16;100066.56;10478970;28;20067;-78
2023/09/17 13:40:06;;;;;;;4.72;3.42;;;;;;;33.83;37.55;100065.97;10476853;28;20160;-77
2023/09/17 13:45:12;;;;;;;3.72;2.63;;;;;;;31.87;39.97;100071.97;10484930;28;20048;-77
2023/09/17 13:50:16;;;;;;;4.32;3.33;;;;;;;30.27;43.83;100069.31;10484321;28;20620;-77
2023/09/17 13:55:19;;;;;;;3.95;3.13;;;;;;;30.90;42.68;100067.59;10481371;28;20052;-77
2023/09/17 14:00:24;;;;;;;4.30;3.70;;;;;;;31.84;42.13;100064.22;10495986;28;20051;-77
2023/09/17 14:05:27;;;;;;;3.70;3.25;;;;;;;32.96;41.21;100055.09;10510898;28;20117;-77
2023/09/17 14:10:30;;;;;;;5.65;3.47;;;;;;;32.59;40.23;100054.31;10500982;28;20508;-77
2023/09/17 14:15:35;;;;;;;4.22;3.08;;;;;;;32.14;40.57;100049.53;10496263;28;20054;-77
2023/09/17 14:20:38;;;;;;;7.68;3.63;;;;;;;31.94;41.18;100047.56;10499805;28;20044;-78
2023/09/17 14:25:41;;;;;;;4.78;2.80;;;;;;;32.32;39.87;100043.47;10503493;28;20051;-78
2023/09/17 14:30:46;;;;;;;3.67;3.35;;;;;;;31.60;40.92;100042.47;10500456;28;20052;-79
2023/09/17 14:35:48;;;;;;;3.20;2.88;;;;;;;32.27;41.28;100043.47;10497236;28;20036;-79
2023/09/17 14:40:51;;;;;;;4.88;2.33;;;;;;;30.92;40.95;100050.72;10499323;28;20059;-78
2023/09/17 14:45:56;;;;;;;3.95;2.50;;;;;;;31.60;39.33;100039.69;10511703;28;20048;-78
2023/09/17 14:50:59;;;;;;;2.50;2.30;;;;;;;32.01;39.50;100035.09;10534186;28;20051;-79
2023/09/17 14:56:01;;;;;;;2.78;2.58;;;;;;;30.84;40.84;100023.50;10510809;28;20051;-78
2023/09/17 15:01:06;;;;;;;4.75;2.50;;;;;;;31.44;40.27;100024.94;10495839;28;20683;-79
2023/09/17 15:06:14;;;;;;;2.65;2.20;;;;;;;31.76;39.91;100021.16;10536463;28;20062;-78
2023/09/17 15:11:17;;;;;;;4.80;2.40;;;;;;;30.56;40.70;100019.97;10522227;28;20052;-78
2023/09/17 15:16:22;;;;;;;2.35;1.92;;;;;;;30.91;40.70;100013.03;10496076;28;20051;-79
2023/09/17 15:21:26;;;;;;;3.22;2.25;;;;;;;31.06;40.45;100015.03;10495054;28;20041;-78
2023/09/17 15:26:29;;;;;;;2.80;2.58;;;;;;;29.83;42.39;100011.25;10492319;28;20044;-79
2023/09/17 15:31:38;;;;;;;4.10;2.10;;;;;;;29.12;43.49;100022.28;10493177;28;21101;-77
2023/09/17 15:36:42;;;;;;;4.35;3.35;;;;;;;28.77;44.64;100025.34;10491550;28;20513;-78
2023/09/17 15:41:45;;;;;;;4.25;2.33;;;;;;;28.30;45.30;100014.66;10489351;28;20081;-78
2023/09/17 15:46:49;;;;;;;5.13;2.58;;;;;;;27.97;46.83;100030.09;10489882;28;20043;-79
2023/09/17 15:51:52;;;;;;;2.85;2.55;;;;;;;27.57;47.10;100023.53;10491265;28;20051;-78
2023/09/17 15:56:55;;;;;;;3.13;2.75;;;;;;;27.38;48.67;100027.53;10501205;28;20046;-78
2023/09/17 16:02:00;;;;;;;3.53;2.47;;;;;;;27.09;49.49;100023.88;10492089;28;20055;-78
2023/09/17 16:07:03;;;;;;;8.45;2.70;;;;;;;26.69;49.73;100030.97;10489203;28;21558;-78
2023/09/17 16:12:07;;;;;;;3.53;2.60;;;;;;;26.65;49.84;100026.16;10485930;28;20040;-77
2023/09/17 16:17:11;;;;;;;3.92;2.40;;;;;;;26.54;50.09;100024.25;10477613;28;20048;-78
2023/09/17 16:22:14;;;;;;;3.50;3.20;;;;;;;26.61;50.41;100016.72;10494764;28;20074;-78
2023/09/17 16:27:17;;;;;;;2.95;2.65;;;;;;;26.71;52.55;100014.16;10495107;28;20150;-77
2023/09/17 16:32:21;;;;;;;3.95;3.10;;;;;;;26.54;53.62;100021.47;10492731;28;20052;-78
2023/09/17 16:37:25;;;;;;;3.00;2.80;;;;;;;26.42;53.71;100018.72;10493392;28;20047;-78
2023/09/17 16:42:28;;;;;;;3.40;3.10;;;;;;;26.13;57.70;100024.03;10499815;28;21775;-78
2023/09/17 16:47:33;;;;;;;5.05;3.22;;;;;;;25.83;60.08;100016.63;10514427;28;20044;-77
2023/09/17 16:52:36;;;;;;;3.47;2.95;;;;;;;25.56;60.96;100016.16;10501509;28;20048;-77
2023/09/17 16:57:39;;;;;;;5.32;3.10;;;;;;;25.29;61.93;100018.41;10491014;28;20050;-77
2023/09/17 17:02:43;;;;;;;4.55;3.20;;;;;;;25.11;62.27;100013.75;10486538;28;20111;-77
2023/09/17 17:07:47;;;;;;;3.60;3.25;;;;;;;24.93;63.18;100017.31;10473865;28;20469;-77
2023/09/17 17:12:49;;;;;;;5.75;3.20;;;;;;;24.71;64.09;100016.91;10479651;28;20059;-77
2023/09/17 17:17:55;;;;;;;3.97;3.15;;;;;;;24.44;64.72;100013.56;10493892;28;20048;-77
2023/09/17 17:22:58;;;;;;;6.57;3.13;;;;;;;24.29;64.29;100019.34;10496554;28;20048;-77
2023/09/17 17:28:01;;;;;;;3.10;2.80;;;;;;;24.15;63.75;100008.72;10501901;28;20067;-77
2023/09/17 17:33:06;;;;;;;3.42;3.05;;;;;;;24.00;64.00;100001.66;10511412;28;20113;-77
2023/09/17 17:38:08;;;;;;;9.93;8.25;;;;;;;23.92;65.06;100001.09;10514344;28;20047;-77
2023/09/17 17:43:12;;;;;;;11.88;9.57;;;;;;;23.87;65.84;100005.31;10512059;28;20053;-77
2023/09/17 17:48:17;;;;;;;9.32;7.45;;;;;;;23.80;66.08;99992.72;10531489;28;20051;-78
2023/09/17 17:53:20;;;;;;;11.20;6.05;;;;;;;23.74;66.41;99993.56;10540167;28;20031;-78
2023/09/17 17:58:24;;;;;;;5.97;4.90;;;;;;;23.70;65.73;99993.19;10530791;28;20048;-77
2023/09/17 18:03:29;;;;;;;7.43;4.88;;;;;;;23.59;65.68;99994.72;10519004;28;20427;-77
2023/09/17 18:08:32;;;;;;;5.25;4.78;;;;;;;23.57;65.17;100002.31;10507506;28;20090;-76
2023/09/17 18:13:35;;;;;;;5.95;5.22;;;;;;;23.61;64.45;99999.97;10496003;28;21184;-77
2023/09/17 18:18:40;;;;;;;5.47;3.92;;;;;;;23.51;65.03;100008.69;10501587;28;20104;-77
2023/09/17 18:23:43;;;;;;;4.20;3.80;;;;;;;23.45;65.45;100001.34;10486402;28;20414;-77
2023/09/17 18:28:46;;;;;;;4.65;3.75;;;;;;;23.44;65.57;99999.63;10488434;28;20053;-74
2023/09/17 18:33:50;;;;;;;7.00;4.03;;;;;;;23.45;65.76;100004.06;10483853;28;20048;-76
2023/09/17 18:38:54;;;;;;;3.85;3.22;;;;;;;23.40;65.73;100001.16;10477523;28;20801;-76
2023/09/17 18:43:57;;;;;;;5.38;3.55;;;;;;;23.35;65.71;99999.03;10487815;28;20733;-76
2023/09/17 18:49:01;;;;;;;4.57;4.18;;;;;;;23.21;66.92;99990.03;10489295;28;20044;-75
2023/09/17 18:54:04;;;;;;;8.43;4.20;;;;;;;22.99;68.10;99994.94;10502597;28;20060;-76
2023/09/17 18:59:08;;;;;;;5.53;5.05;;;;;;;22.76;68.63;100006.38;10483290;28;20051;-76
2023/09/17 19:04:13;;;;;;;7.22;5.75;;;;;;;22.73;69.26;100001.31;10464452;28;20051;-75
2023/09/17 19:09:16;;;;;;;6.07;5.47;;;;;;;22.69;69.30;99991.03;10407927;28;20055;-76
2023/09/17 19:14:19;;;;;;;5.47;4.60;;;;;;;22.68;69.43;99987.44;10403960;28;20040;-77
2023/09/17 19:19:23;;;;;;;6.60;5.15;;;;;;;22.64;69.94;99982.59;10407907;28;20052;-75
2023/09/17 19:24:26;;;;;;;6.43;5.70;;;;;;;22.63;70.62;99986.41;10400226;28;20049;-73
2023/09/17 19:29:29;;;;;;;6.35;5.35;;;;;;;22.64;70.81;99979.88;10405190;28;20136;-76
2023/09/17 19:34:34;;;;;;;7.55;5.90;;;;;;;22.63;70.73;99976.28;10404136;28;20163;-75
2023/09/17 19:39:37;;;;;;;6.00;5.40;;;;;;;22.53;71.49;99970.41;10401605;28;20091;-76
2023/09/17 19:44:39;;;;;;;9.50;6.35;;;;;;;22.47;71.74;99976.75;10398705;28;20077;-76
2023/09/17 19:49:44;;;;;;;6.65;5.78;;;;;;;22.30;72.92;99955.25;10396680;28;21151;-75
2023/09/17 19:54:47;;;;;;;7.57;5.57;;;;;;;22.23;73.24;99951.66;10396814;28;20044;-77
2023/09/17 19:59:50;;;;;;;6.80;5.82;;;;;;;22.06;74.13;99947.69;10398671;28;20048;-77
2023/09/17 20:04:54;;;;;;;8.30;6.28;;;;;;;21.99;74.40;99936.72;10402446;28;20165;-75
2023/09/17 20:09:57;;;;;;;7.25;6.07;;;;;;;21.95;74.78;99937.38;10398643;28;20041;-76
2023/09/17 20:15:00;;;;;;;12.05;7.00;;;;;;;21.79;75.44;99936.72;10409051;28;20420;-75
2023/09/17 20:20:06;;;;;;;9.70;6.75;;;;;;;21.72;75.58;99921.34;10411645;28;20040;-77
2023/09/17 20:25:09;;;;;;;9.40;7.68;;;;;;;21.62;75.91;99917.13;10403547;28;20044;-76
2023/09/17 20:30:12;;;;;;;8.63;7.80;;;;;;;21.55;76.16;99919.00;10405537;28;20036;-76
2023/09/17 20:35:16;;;;;;;8.35;7.47;;;;;;;21.44;75.77;99912.25;10403117;28;20046;-75
2023/09/17 20:40:19;;;;;;;9.00;7.47;;;;;;;21.43;76.02;99915.22;10407500;28;20053;-77
2023/09/17 20:45:22;;;;;;;9.95;6.57;;;;;;;21.40;75.77;99919.19;10411274;28;20041;-76
2023/09/17 20:50:27;;;;;;;10.65;6.63;;;;;;;21.51;75.46;99923.22;10420684;28;20045;-75
2023/09/17 20:55:30;;;;;;;8.85;7.32;;;;;;;21.45;75.23;99922.16;10424957;28;20056;-75
2023/09/17 21:00:33;;;;;;;8.02;7.13;;;;;;;21.38;75.05;99917.72;10439868;28;20044;-75
2023/09/17 21:05:37;;;;;;;10.35;7.03;;;;;;;21.30;74.77;99917.91;10436296;28;20052;-77
2023/09/17 21:10:41;;;;;;;8.35;7.38;;;;;;;21.25;74.31;99907.59;10419322;28;20056;-76
2023/09/17 21:15:44;;;;;;;7.18;6.47;;;;;;;21.20;74.10;99908.22;10408622;28;20378;-76
2023/09/17 21:20:48;;;;;;;7.00;6.30;;;;;;;21.24;73.72;99903.19;10409477;28;20041;-77
2023/09/17 21:25:51;;;;;;;9.05;6.80;;;;;;;21.17;73.80;99908.66;10407698;28;20056;-77
2023/09/17 21:30:54;;;;;;;8.10;6.50;;;;;;;21.12;73.86;99904.84;10406337;28;20052;-76
2023/09/17 21:36:00;;;;;;;7.72;6.28;;;;;;;21.15;73.26;99909.91;10402186;28;20043;-75
2023/09/17 21:41:03;;;;;;;11.32;7.38;;;;;;;21.04;73.55;99899.56;10401497;28;20540;-76
2023/09/17 21:46:06;;;;;;;9.75;6.57;;;;;;;20.96;73.67;99903.28;10403305;28;20117;-76
2023/09/17 21:51:10;;;;;;;7.68;6.95;;;;;;;20.94;73.59;99881.63;10404584;28;20045;-77
2023/09/17 21:56:13;;;;;;;9.77;7.45;;;;;;;20.87;73.72;99890.84;10399491;28;20053;-76
2023/09/17 22:01:18;;;;;;;7.95;7.15;;;;;;;20.83;73.65;99884.13;10398518;28;21326;-76
2023/09/17 22:06:22;;;;;;;8.50;7.28;;;;;;;20.86;73.67;99862.69;10390978;28;20049;-76
2023/09/17 22:11:25;;;;;;;8.80;6.70;;;;;;;20.79;73.85;99861.84;10394706;28;20041;-76
2023/09/17 22:16:28;;;;;;;8.35;6.90;;;;;;;20.70;74.18;99849.41;10394360;28;20646;-76
2023/09/17 22:21:34;;;;;;;9.93;7.28;;;;;;;20.66;74.58;99843.53;10396448;28;20045;-76
2023/09/17 22:26:37;;;;;;;7.95;7.15;;;;;;;20.56;74.68;99852.06;10397325;28;20075;-76
2023/09/17 22:31:40;;;;;;;9.93;6.88;;;;;;;20.47;75.32;99858.75;10396485;28;20053;-77
2023/09/17 22:36:44;;;;;;;7.95;6.53;;;;;;;20.42;75.54;99853.06;10402439;28;20054;-76
2023/09/17 22:41:47;;;;;;;13.07;7.10;;;;;;;20.48;75.39;99841.34;10401769;28;21061;-77
2023/09/17 22:46:50;;;;;;;7.63;6.60;;;;;;;20.46;74.94;99838.00;10403985;28;20635;-75
2023/09/17 22:51:55;;;;;;;9.35;6.82;;;;;;;20.51;74.75;99835.47;10412269;28;20084;-77
2023/09/17 22:56:58;;;;;;;9.98;6.68;;;;;;;20.47;74.65;99826.03;10410779;28;20505;-76
2023/09/17 23:02:01;;;;;;;8.77;7.00;;;;;;;20.45;74.47;99819.09;10404083;28;20101;-75
2023/09/17 23:07:05;;;;;;;8.82;7.00;;;;;;;20.39;74.76;99826.19;10399046;28;20053;-75
2023/09/17 23:12:09;;;;;;;9.70;6.45;;;;;;;20.43;74.34;99826.63;10403171;28;20538;-76
2023/09/17 23:17:12;;;;;;;9.68;8.30;;;;;;;20.43;73.83;99821.16;10401447;28;20045;-74